sensor_id;sensor_type;location;lat;lon;timestamp;temperature;humidity
16066;DHT22;8137;48.952;8.970;2023-04-23T00:02:19;12.10;99.90
16066;DHT22;8137;48.952;8.970;2023-04-23T00:04:50;12.10;99.90
16066;DHT22;8137;48.952;8.970;2023-04-23T00:07:19;12.10;99.90
16066;DHT22;8137;48.952;8.970;2023-04-23T00:09:46;12.00;99.90
16066;DHT22;8137;48.952;8.970;2023-04-23T00:12:13;12.10;99.90
16066;DHT22;8137;48.952;8.970;2023-04-23T00:14:39;12.10;99.90
16066;DHT22;8137;48.952;8.970;2023-04-23T00:17:04;12.10;99.90
16066;DHT22;8137;48.952;8.970;2023-04-23T00:19:30;12.10;99.90
16066;DHT22;8137;48.952;8.970;2023-04-23T00:21:56;12.00;99.90
16066;DHT22;8137;48.952;8.970;2023-04-23T00:24:22;12.00;99.90
16066;DHT22;8137;48.952;8.970;2023-04-23T00:26:47;12.00;99.90
16066;DHT22;8137;48.952;8.970;2023-04-23T00:29:13;12.00;99.90
16066;DHT22;8137;48.952;8.970;2023-04-23T00:31:39;12.00;99.90
16066;DHT22;8137;48.952;8.970;2023-04-23T00:34:04;12.10;99.90
16066;DHT22;8137;48.952;8.970;2023-04-23T00:36:30;12.10;99.90
16066;DHT22;8137;48.952;8.970;2023-04-23T00:38:56;12.10;99.90
16066;DHT22;8137;48.952;8.970;2023-04-23T00:41:22;12.20;99.90
16066;DHT22;8137;48.952;8.970;2023-04-23T00:43:48;12.30;99.90
16066;DHT22;8137;48.952;8.970;2023-04-23T00:46:16;12.20;99.90
16066;DHT22;8137;48.952;8.970;2023-04-23T00:48:43;12.20;99.90
16066;DHT22;8137;48.952;8.970;2023-04-23T00:51:10;12.20;99.90
16066;DHT22;8137;48.952;8.970;2023-04-23T00:53:36;12.20;99.90
16066;DHT22;8137;48.952;8.970;2023-04-23T00:56:03;12.20;99.90
16066;DHT22;8137;48.952;8.970;2023-04-23T00:58:29;12.10;99.90
16066;DHT22;8137;48.952;8.970;2023-04-23T01:00:55;12.20;99.90
16066;DHT22;8137;48.952;8.970;2023-04-23T01:03:22;12.10;99.90
16066;DHT22;8137;48.952;8.970;2023-04-23T01:05:49;12.20;99.90
16066;DHT22;8137;48.952;8.970;2023-04-23T01:08:16;12.10;99.90
16066;DHT22;8137;48.952;8.970;2023-04-23T01:10:43;12.20;99.90
16066;DHT22;8137;48.952;8.970;2023-04-23T01:13:09;12.10;99.90
16066;DHT22;8137;48.952;8.970;2023-04-23T01:15:36;12.10;99.90
16066;DHT22;8137;48.952;8.970;2023-04-23T01:18:01;12.10;99.90
16066;DHT22;8137;48.952;8.970;2023-04-23T01:20:29;12.10;99.90
16066;DHT22;8137;48.952;8.970;2023-04-23T01:22:54;12.00;99.90
16066;DHT22;8137;48.952;8.970;2023-04-23T01:25:20;12.00;99.90
16066;DHT22;8137;48.952;8.970;2023-04-23T01:27:46;12.00;99.90
16066;DHT22;8137;48.952;8.970;2023-04-23T01:30:12;11.90;99.90
16066;DHT22;8137;48.952;8.970;2023-04-23T01:32:38;11.90;99.90
16066;DHT22;8137;48.952;8.970;2023-04-23T01:35:04;12.00;99.90
16066;DHT22;8137;48.952;8.970;2023-04-23T01:37:32;11.90;99.90
16066;DHT22;8137;48.952;8.970;2023-04-23T01:39:58;11.80;99.90
16066;DHT22;8137;48.952;8.970;2023-04-23T01:42:23;11.70;99.90
16066;DHT22;8137;48.952;8.970;2023-04-23T01:44:49;11.70;99.90
16066;DHT22;8137;48.952;8.970;2023-04-23T01:47:16;11.70;99.90
16066;DHT22;8137;48.952;8.970;2023-04-23T01:49:42;11.60;99.90
16066;DHT22;8137;48.952;8.970;2023-04-23T01:52:08;11.70;99.90
16066;DHT22;8137;48.952;8.970;2023-04-23T01:54:33;11.60;99.90
16066;DHT22;8137;48.952;8.970;2023-04-23T01:56:59;11.60;99.90
16066;DHT22;8137;48.952;8.970;2023-04-23T01:59:25;11.60;99.90
16066;DHT22;8137;48.952;8.970;2023-04-23T02:01:50;11.60;99.90
16066;DHT22;8137;48.952;8.970;2023-04-23T02:04:17;11.60;99.90
16066;DHT22;8137;48.952;8.970;2023-04-23T02:06:44;11.60;99.90
16066;DHT22;8137;48.952;8.970;2023-04-23T02:09:11;11.60;99.90
16066;DHT22;8137;48.952;8.970;2023-04-23T02:11:37;11.60;99.90
16066;DHT22;8137;48.952;8.970;2023-04-23T02:14:04;11.60;99.90
16066;DHT22;8137;48.952;8.970;2023-04-23T02:16:30;11.60;99.90
16066;DHT22;8137;48.952;8.970;2023-04-23T02:18:56;11.60;99.90
16066;DHT22;8137;48.952;8.970;2023-04-23T02:21:23;11.60;99.90
16066;DHT22;8137;48.952;8.970;2023-04-23T02:23:49;11.60;99.90
16066;DHT22;8137;48.952;8.970;2023-04-23T02:26:15;11.60;99.90
16066;DHT22;8137;48.952;8.970;2023-04-23T02:28:41;11.50;99.90
16066;DHT22;8137;48.952;8.970;2023-04-23T02:31:06;11.50;99.90
16066;DHT22;8137;48.952;8.970;2023-04-23T02:33:32;11.50;99.90
16066;DHT22;8137;48.952;8.970;2023-04-23T02:35:57;11.50;99.90
16066;DHT22;8137;48.952;8.970;2023-04-23T02:38:23;11.50;99.90
16066;DHT22;8137;48.952;8.970;2023-04-23T02:40:49;11.50;99.90
16066;DHT22;8137;48.952;8.970;2023-04-23T02:43:14;11.50;99.90
16066;DHT22;8137;48.952;8.970;2023-04-23T02:45:40;11.50;99.90
16066;DHT22;8137;48.952;8.970;2023-04-23T02:48:05;11.60;99.90
16066;DHT22;8137;48.952;8.970;2023-04-23T02:50:31;11.50;99.90
16066;DHT22;8137;48.952;8.970;2023-04-23T02:52:57;11.50;99.90
16066;DHT22;8137;48.952;8.970;2023-04-23T02:55:22;11.50;99.90
16066;DHT22;8137;48.952;8.970;2023-04-23T02:57:50;11.50;99.90
16066;DHT22;8137;48.952;8.970;2023-04-23T03:00:15;11.50;99.90
16066;DHT22;8137;48.952;8.970;2023-04-23T03:02:41;11.50;99.90
16066;DHT22;8137;48.952;8.970;2023-04-23T03:05:07;11.50;99.90
16066;DHT22;8137;48.952;8.970;2023-04-23T03:07:33;11.50;99.90
16066;DHT22;8137;48.952;8.970;2023-04-23T03:09:58;11.40;99.90
16066;DHT22;8137;48.952;8.970;2023-04-23T03:12:24;11.40;99.90
16066;DHT22;8137;48.952;8.970;2023-04-23T03:14:49;11.40;99.90
16066;DHT22;8137;48.952;8.970;2023-04-23T03:17:15;11.40;99.90
16066;DHT22;8137;48.952;8.970;2023-04-23T03:19:41;11.40;99.90
16066;DHT22;8137;48.952;8.970;2023-04-23T03:22:06;11.30;99.90
16066;DHT22;8137;48.952;8.970;2023-04-23T03:24:33;11.30;99.90
16066;DHT22;8137;48.952;8.970;2023-04-23T03:26:58;11.30;99.90
16066;DHT22;8137;48.952;8.970;2023-04-23T03:29:24;11.30;99.90
16066;DHT22;8137;48.952;8.970;2023-04-23T03:31:50;11.30;99.90
16066;DHT22;8137;48.952;8.970;2023-04-23T03:34:16;11.30;99.90
16066;DHT22;8137;48.952;8.970;2023-04-23T03:36:42;11.30;99.90
16066;DHT22;8137;48.952;8.970;2023-04-23T03:39:09;11.30;99.90
16066;DHT22;8137;48.952;8.970;2023-04-23T03:41:35;11.30;99.90
16066;DHT22;8137;48.952;8.970;2023-04-23T03:44:00;11.30;99.90
16066;DHT22;8137;48.952;8.970;2023-04-23T03:46:26;11.30;99.90
16066;DHT22;8137;48.952;8.970;2023-04-23T03:48:52;11.30;99.90
16066;DHT22;8137;48.952;8.970;2023-04-23T03:51:17;11.30;99.90
16066;DHT22;8137;48.952;8.970;2023-04-23T03:53:44;11.20;99.90
16066;DHT22;8137;48.952;8.970;2023-04-23T03:56:10;11.20;99.90
16066;DHT22;8137;48.952;8.970;2023-04-23T03:58:35;11.20;99.90
16066;DHT22;8137;48.952;8.970;2023-04-23T04:01:01;11.20;99.90
16066;DHT22;8137;48.952;8.970;2023-04-23T04:03:27;11.10;99.90
16066;DHT22;8137;48.952;8.970;2023-04-23T04:05:53;11.10;99.90
16066;DHT22;8137;48.952;8.970;2023-04-23T04:08:19;11.00;99.90
16066;DHT22;8137;48.952;8.970;2023-04-23T04:10:44;11.00;99.90
16066;DHT22;8137;48.952;8.970;2023-04-23T04:13:10;11.00;99.90
16066;DHT22;8137;48.952;8.970;2023-04-23T04:15:36;10.90;99.90
16066;DHT22;8137;48.952;8.970;2023-04-23T04:18:01;10.90;99.90
16066;DHT22;8137;48.952;8.970;2023-04-23T04:20:27;10.90;99.90
16066;DHT22;8137;48.952;8.970;2023-04-23T04:22:53;10.80;99.90
16066;DHT22;8137;48.952;8.970;2023-04-23T04:25:19;10.80;99.90
16066;DHT22;8137;48.952;8.970;2023-04-23T04:27:47;10.80;99.90
16066;DHT22;8137;48.952;8.970;2023-04-23T04:30:13;10.70;99.90
16066;DHT22;8137;48.952;8.970;2023-04-23T04:32:38;10.70;99.90
16066;DHT22;8137;48.952;8.970;2023-04-23T04:35:05;10.70;99.90
16066;DHT22;8137;48.952;8.970;2023-04-23T04:37:34;10.70;99.90
16066;DHT22;8137;48.952;8.970;2023-04-23T04:40:00;10.70;99.90
16066;DHT22;8137;48.952;8.970;2023-04-23T04:42:26;10.80;99.90
16066;DHT22;8137;48.952;8.970;2023-04-23T04:44:55;10.70;99.90
16066;DHT22;8137;48.952;8.970;2023-04-23T04:47:24;10.70;99.90
16066;DHT22;8137;48.952;8.970;2023-04-23T04:49:49;10.60;99.90
16066;DHT22;8137;48.952;8.970;2023-04-23T04:52:15;10.60;99.90
16066;DHT22;8137;48.952;8.970;2023-04-23T04:54:42;10.60;99.90
16066;DHT22;8137;48.952;8.970;2023-04-23T04:57:07;10.60;99.90
16066;DHT22;8137;48.952;8.970;2023-04-23T04:59:33;10.60;99.90
16066;DHT22;8137;48.952;8.970;2023-04-23T05:01:59;10.70;99.90
16066;DHT22;8137;48.952;8.970;2023-04-23T05:04:24;10.70;99.90
16066;DHT22;8137;48.952;8.970;2023-04-23T05:06:50;10.80;99.90
16066;DHT22;8137;48.952;8.970;2023-04-23T05:09:16;10.90;99.90
16066;DHT22;8137;48.952;8.970;2023-04-23T05:11:41;11.00;99.90
16066;DHT22;8137;48.952;8.970;2023-04-23T05:14:08;11.00;99.90
16066;DHT22;8137;48.952;8.970;2023-04-23T05:16:33;11.00;99.90
16066;DHT22;8137;48.952;8.970;2023-04-23T05:18:59;11.10;99.90
16066;DHT22;8137;48.952;8.970;2023-04-23T05:21:25;11.10;99.90
16066;DHT22;8137;48.952;8.970;2023-04-23T05:23:54;11.10;99.90
16066;DHT22;8137;48.952;8.970;2023-04-23T05:26:19;11.20;99.90
16066;DHT22;8137;48.952;8.970;2023-04-23T05:28:45;11.20;99.90
16066;DHT22;8137;48.952;8.970;2023-04-23T05:31:11;11.30;99.90
16066;DHT22;8137;48.952;8.970;2023-04-23T05:33:37;11.30;99.90
16066;DHT22;8137;48.952;8.970;2023-04-23T05:36:03;11.40;99.90
16066;DHT22;8137;48.952;8.970;2023-04-23T05:38:29;11.50;99.90
16066;DHT22;8137;48.952;8.970;2023-04-23T05:40:54;11.60;99.90
16066;DHT22;8137;48.952;8.970;2023-04-23T05:43:20;11.60;99.90
16066;DHT22;8137;48.952;8.970;2023-04-23T05:45:46;11.70;99.90
16066;DHT22;8137;48.952;8.970;2023-04-23T05:48:11;11.70;99.90
16066;DHT22;8137;48.952;8.970;2023-04-23T05:50:37;11.80;99.90
16066;DHT22;8137;48.952;8.970;2023-04-23T05:53:02;11.80;99.90
16066;DHT22;8137;48.952;8.970;2023-04-23T05:55:28;11.80;99.90
16066;DHT22;8137;48.952;8.970;2023-04-23T05:57:54;11.90;99.90
16066;DHT22;8137;48.952;8.970;2023-04-23T06:00:19;11.90;99.90
16066;DHT22;8137;48.952;8.970;2023-04-23T06:02:45;12.00;99.90
16066;DHT22;8137;48.952;8.970;2023-04-23T06:05:15;12.10;99.90
16066;DHT22;8137;48.952;8.970;2023-04-23T06:07:41;12.30;99.90
16066;DHT22;8137;48.952;8.970;2023-04-23T06:10:07;12.30;99.90
16066;DHT22;8137;48.952;8.970;2023-04-23T06:12:33;12.50;99.90
16066;DHT22;8137;48.952;8.970;2023-04-23T06:14:58;12.60;99.90
16066;DHT22;8137;48.952;8.970;2023-04-23T06:17:24;12.70;99.90
16066;DHT22;8137;48.952;8.970;2023-04-23T06:19:50;12.80;99.90
16066;DHT22;8137;48.952;8.970;2023-04-23T06:22:15;13.00;99.90
16066;DHT22;8137;48.952;8.970;2023-04-23T06:24:41;13.20;99.90
16066;DHT22;8137;48.952;8.970;2023-04-23T06:27:06;13.40;99.90
16066;DHT22;8137;48.952;8.970;2023-04-23T06:29:32;13.70;99.90
16066;DHT22;8137;48.952;8.970;2023-04-23T06:32:01;14.00;99.90
16066;DHT22;8137;48.952;8.970;2023-04-23T06:34:27;14.50;99.90
16066;DHT22;8137;48.952;8.970;2023-04-23T06:36:53;14.80;99.90
16066;DHT22;8137;48.952;8.970;2023-04-23T06:39:19;15.00;99.90
16066;DHT22;8137;48.952;8.970;2023-04-23T06:41:45;15.20;99.90
16066;DHT22;8137;48.952;8.970;2023-04-23T06:44:10;15.10;99.90
16066;DHT22;8137;48.952;8.970;2023-04-23T06:46:36;14.90;99.90
16066;DHT22;8137;48.952;8.970;2023-04-23T06:49:02;14.80;99.90
16066;DHT22;8137;48.952;8.970;2023-04-23T06:51:27;14.80;99.90
16066;DHT22;8137;48.952;8.970;2023-04-23T06:53:53;14.80;99.90
16066;DHT22;8137;48.952;8.970;2023-04-23T06:56:19;14.80;99.90
16066;DHT22;8137;48.952;8.970;2023-04-23T06:58:46;14.90;99.90
16066;DHT22;8137;48.952;8.970;2023-04-23T07:01:12;15.00;99.90
16066;DHT22;8137;48.952;8.970;2023-04-23T07:03:37;15.00;99.90
16066;DHT22;8137;48.952;8.970;2023-04-23T07:06:03;15.10;99.90
16066;DHT22;8137;48.952;8.970;2023-04-23T07:08:29;15.20;99.90
16066;DHT22;8137;48.952;8.970;2023-04-23T07:10:55;15.00;99.90
16066;DHT22;8137;48.952;8.970;2023-04-23T07:13:20;15.20;99.90
16066;DHT22;8137;48.952;8.970;2023-04-23T07:15:46;15.50;99.90
16066;DHT22;8137;48.952;8.970;2023-04-23T07:18:13;15.70;99.90
16066;DHT22;8137;48.952;8.970;2023-04-23T07:20:38;15.80;99.90
16066;DHT22;8137;48.952;8.970;2023-04-23T07:23:04;16.00;99.90
16066;DHT22;8137;48.952;8.970;2023-04-23T07:25:30;16.10;99.90
16066;DHT22;8137;48.952;8.970;2023-04-23T07:27:55;16.30;99.90
16066;DHT22;8137;48.952;8.970;2023-04-23T07:30:22;16.60;99.90
16066;DHT22;8137;48.952;8.970;2023-04-23T07:32:48;16.60;99.90
16066;DHT22;8137;48.952;8.970;2023-04-23T07:35:14;16.60;99.90
16066;DHT22;8137;48.952;8.970;2023-04-23T07:37:39;16.50;99.90
16066;DHT22;8137;48.952;8.970;2023-04-23T07:40:05;16.70;99.90
16066;DHT22;8137;48.952;8.970;2023-04-23T07:42:33;16.80;99.90
16066;DHT22;8137;48.952;8.970;2023-04-23T07:44:58;16.90;99.90
16066;DHT22;8137;48.952;8.970;2023-04-23T07:47:24;17.00;99.90
16066;DHT22;8137;48.952;8.970;2023-04-23T07:49:50;17.00;99.90
16066;DHT22;8137;48.952;8.970;2023-04-23T07:52:16;17.30;99.90
16066;DHT22;8137;48.952;8.970;2023-04-23T07:54:42;17.80;99.90
16066;DHT22;8137;48.952;8.970;2023-04-23T07:57:07;18.20;99.90
16066;DHT22;8137;48.952;8.970;2023-04-23T07:59:33;18.40;99.90
16066;DHT22;8137;48.952;8.970;2023-04-23T08:01:59;18.60;99.90
16066;DHT22;8137;48.952;8.970;2023-04-23T08:04:24;19.00;99.90
16066;DHT22;8137;48.952;8.970;2023-04-23T08:06:50;19.30;99.90
16066;DHT22;8137;48.952;8.970;2023-04-23T08:09:16;19.00;99.90
16066;DHT22;8137;48.952;8.970;2023-04-23T08:11:42;18.60;99.90
16066;DHT22;8137;48.952;8.970;2023-04-23T08:14:07;18.70;99.90
16066;DHT22;8137;48.952;8.970;2023-04-23T08:16:33;18.90;99.90
16066;DHT22;8137;48.952;8.970;2023-04-23T08:18:58;18.80;99.90
16066;DHT22;8137;48.952;8.970;2023-04-23T08:21:24;18.90;99.90
16066;DHT22;8137;48.952;8.970;2023-04-23T08:23:51;19.00;99.90
16066;DHT22;8137;48.952;8.970;2023-04-23T08:26:17;19.20;99.90
16066;DHT22;8137;48.952;8.970;2023-04-23T08:28:42;19.20;99.90
16066;DHT22;8137;48.952;8.970;2023-04-23T08:31:08;19.20;99.90
16066;DHT22;8137;48.952;8.970;2023-04-23T08:33:34;19.40;99.90
16066;DHT22;8137;48.952;8.970;2023-04-23T08:35:59;19.00;99.90
16066;DHT22;8137;48.952;8.970;2023-04-23T08:38:25;18.40;99.90
16066;DHT22;8137;48.952;8.970;2023-04-23T08:40:56;18.70;99.90
16066;DHT22;8137;48.952;8.970;2023-04-23T08:43:37;19.00;99.90
16066;DHT22;8137;48.952;8.970;2023-04-23T08:46:11;19.30;99.90
16066;DHT22;8137;48.952;8.970;2023-04-23T08:48:39;19.60;99.90
16066;DHT22;8137;48.952;8.970;2023-04-23T08:51:08;19.80;99.90
16066;DHT22;8137;48.952;8.970;2023-04-23T08:53:34;19.80;99.90
16066;DHT22;8137;48.952;8.970;2023-04-23T08:56:01;20.00;99.90
16066;DHT22;8137;48.952;8.970;2023-04-23T08:58:28;20.30;99.90
16066;DHT22;8137;48.952;8.970;2023-04-23T09:00:54;20.60;99.90
16066;DHT22;8137;48.952;8.970;2023-04-23T09:03:22;20.80;99.90
16066;DHT22;8137;48.952;8.970;2023-04-23T09:05:50;21.10;99.90
16066;DHT22;8137;48.952;8.970;2023-04-23T09:08:19;21.20;99.90
16066;DHT22;8137;48.952;8.970;2023-04-23T09:10:44;21.10;99.90
16066;DHT22;8137;48.952;8.970;2023-04-23T09:13:11;21.40;99.90
16066;DHT22;8137;48.952;8.970;2023-04-23T09:15:39;21.70;99.90
16066;DHT22;8137;48.952;8.970;2023-04-23T09:18:08;22.10;99.90
16066;DHT22;8137;48.952;8.970;2023-04-23T09:20:34;22.20;99.90
16066;DHT22;8137;48.952;8.970;2023-04-23T09:23:00;21.80;99.90
16066;DHT22;8137;48.952;8.970;2023-04-23T09:25:31;21.50;99.90
16066;DHT22;8137;48.952;8.970;2023-04-23T09:27:58;21.20;99.90
16066;DHT22;8137;48.952;8.970;2023-04-23T09:30:26;21.00;99.90
16066;DHT22;8137;48.952;8.970;2023-04-23T09:32:52;20.70;99.90
16066;DHT22;8137;48.952;8.970;2023-04-23T09:35:18;20.40;99.90
16066;DHT22;8137;48.952;8.970;2023-04-23T09:37:46;20.70;99.90
16066;DHT22;8137;48.952;8.970;2023-04-23T09:40:14;20.60;99.90
16066;DHT22;8137;48.952;8.970;2023-04-23T09:42:40;20.80;99.90
16066;DHT22;8137;48.952;8.970;2023-04-23T09:45:11;20.80;99.90
16066;DHT22;8137;48.952;8.970;2023-04-23T09:47:40;21.10;99.90
16066;DHT22;8137;48.952;8.970;2023-04-23T09:50:06;21.50;99.90
16066;DHT22;8137;48.952;8.970;2023-04-23T09:52:37;21.60;99.90
16066;DHT22;8137;48.952;8.970;2023-04-23T09:55:04;22.20;99.90
16066;DHT22;8137;48.952;8.970;2023-04-23T09:57:50;22.40;99.90
16066;DHT22;8137;48.952;8.970;2023-04-23T10:00:19;22.40;99.90
16066;DHT22;8137;48.952;8.970;2023-04-23T10:02:46;21.90;99.90
16066;DHT22;8137;48.952;8.970;2023-04-23T10:05:17;21.90;99.90
16066;DHT22;8137;48.952;8.970;2023-04-23T10:07:44;21.90;99.90
16066;DHT22;8137;48.952;8.970;2023-04-23T10:10:11;21.50;99.90
16066;DHT22;8137;48.952;8.970;2023-04-23T10:12:37;21.40;99.90
16066;DHT22;8137;48.952;8.970;2023-04-23T10:15:06;21.50;99.90
16066;DHT22;8137;48.952;8.970;2023-04-23T10:17:34;21.80;99.90
16066;DHT22;8137;48.952;8.970;2023-04-23T10:20:01;21.70;99.90
16066;DHT22;8137;48.952;8.970;2023-04-23T10:22:30;21.80;99.90
16066;DHT22;8137;48.952;8.970;2023-04-23T10:25:00;21.80;99.90
16066;DHT22;8137;48.952;8.970;2023-04-23T10:27:30;22.10;99.90
16066;DHT22;8137;48.952;8.970;2023-04-23T10:30:04;22.20;99.90
16066;DHT22;8137;48.952;8.970;2023-04-23T10:32:32;22.40;99.90
16066;DHT22;8137;48.952;8.970;2023-04-23T10:34:57;22.40;99.90
16066;DHT22;8137;48.952;8.970;2023-04-23T10:37:23;22.60;99.90
16066;DHT22;8137;48.952;8.970;2023-04-23T10:39:53;21.80;99.90
16066;DHT22;8137;48.952;8.970;2023-04-23T10:42:20;21.40;99.90
16066;DHT22;8137;48.952;8.970;2023-04-23T10:44:46;21.30;99.90
16066;DHT22;8137;48.952;8.970;2023-04-23T10:47:13;21.60;99.90
16066;DHT22;8137;48.952;8.970;2023-04-23T10:49:39;21.60;99.90
16066;DHT22;8137;48.952;8.970;2023-04-23T10:52:10;21.20;99.90
16066;DHT22;8137;48.952;8.970;2023-04-23T10:54:40;21.30;99.90
16066;DHT22;8137;48.952;8.970;2023-04-23T10:57:07;21.20;99.90
16066;DHT22;8137;48.952;8.970;2023-04-23T10:59:34;21.30;99.90
16066;DHT22;8137;48.952;8.970;2023-04-23T11:02:10;21.70;99.90
16066;DHT22;8137;48.952;8.970;2023-04-23T11:05:01;22.00;99.90
16066;DHT22;8137;48.952;8.970;2023-04-23T11:07:32;21.80;99.90
16066;DHT22;8137;48.952;8.970;2023-04-23T11:10:11;21.70;99.90
16066;DHT22;8137;48.952;8.970;2023-04-23T11:12:38;21.80;99.90
16066;DHT22;8137;48.952;8.970;2023-04-23T11:15:12;22.30;99.90
16066;DHT22;8137;48.952;8.970;2023-04-23T11:20:14;23.00;99.90
16066;DHT22;8137;48.952;8.970;2023-04-23T11:22:44;23.30;99.60
16066;DHT22;8137;48.952;8.970;2023-04-23T11:25:12;22.80;97.90
16066;DHT22;8137;48.952;8.970;2023-04-23T11:27:39;22.90;96.50
16066;DHT22;8137;48.952;8.970;2023-04-23T11:30:13;22.90;93.00
16066;DHT22;8137;48.952;8.970;2023-04-23T11:32:49;22.50;92.30
16066;DHT22;8137;48.952;8.970;2023-04-23T11:35:17;21.80;92.80
16066;DHT22;8137;48.952;8.970;2023-04-23T11:37:44;21.80;96.00
16066;DHT22;8137;48.952;8.970;2023-04-23T11:40:11;21.90;95.00
16066;DHT22;8137;48.952;8.970;2023-04-23T11:42:46;21.90;94.00
16066;DHT22;8137;48.952;8.970;2023-04-23T11:47:49;22.50;94.80
16066;DHT22;8137;48.952;8.970;2023-04-23T11:50:19;22.60;91.20
16066;DHT22;8137;48.952;8.970;2023-04-23T11:52:45;22.70;87.20
16066;DHT22;8137;48.952;8.970;2023-04-23T11:55:11;22.70;85.70
16066;DHT22;8137;48.952;8.970;2023-04-23T11:57:45;22.70;88.30
16066;DHT22;8137;48.952;8.970;2023-04-23T12:00:13;22.80;87.10
16066;DHT22;8137;48.952;8.970;2023-04-23T12:05:31;22.60;82.10
16066;DHT22;8137;48.952;8.970;2023-04-23T12:08:14;22.50;82.10
16066;DHT22;8137;48.952;8.970;2023-04-23T12:13:16;22.20;73.70
16066;DHT22;8137;48.952;8.970;2023-04-23T12:15:51;22.20;71.60
16066;DHT22;8137;48.952;8.970;2023-04-23T12:18:17;22.20;69.30
16066;DHT22;8137;48.952;8.970;2023-04-23T12:20:44;21.80;68.10
16066;DHT22;8137;48.952;8.970;2023-04-23T12:23:10;21.50;68.80
16066;DHT22;8137;48.952;8.970;2023-04-23T12:25:36;21.40;69.00
16066;DHT22;8137;48.952;8.970;2023-04-23T12:28:02;21.20;68.10
16066;DHT22;8137;48.952;8.970;2023-04-23T12:30:33;21.20;68.60
16066;DHT22;8137;48.952;8.970;2023-04-23T12:33:02;21.20;65.60
16066;DHT22;8137;48.952;8.970;2023-04-23T12:35:44;21.30;61.80
16066;DHT22;8137;48.952;8.970;2023-04-23T12:38:27;21.30;61.60
16066;DHT22;8137;48.952;8.970;2023-04-23T12:40:54;21.40;60.10
16066;DHT22;8137;48.952;8.970;2023-04-23T12:43:21;21.30;58.20
16066;DHT22;8137;48.952;8.970;2023-04-23T12:45:46;21.20;57.90
16066;DHT22;8137;48.952;8.970;2023-04-23T12:48:12;21.30;59.20
16066;DHT22;8137;48.952;8.970;2023-04-23T12:50:38;21.40;58.60
16066;DHT22;8137;48.952;8.970;2023-04-23T12:53:04;21.40;59.10
16066;DHT22;8137;48.952;8.970;2023-04-23T12:55:30;21.30;57.20
16066;DHT22;8137;48.952;8.970;2023-04-23T12:57:55;21.20;56.20
16066;DHT22;8137;48.952;8.970;2023-04-23T13:00:21;21.10;56.30
16066;DHT22;8137;48.952;8.970;2023-04-23T13:02:47;20.90;60.80
16066;DHT22;8137;48.952;8.970;2023-04-23T13:05:12;20.70;60.80
16066;DHT22;8137;48.952;8.970;2023-04-23T13:07:38;20.40;59.30
16066;DHT22;8137;48.952;8.970;2023-04-23T13:10:04;20.30;65.40
16066;DHT22;8137;48.952;8.970;2023-04-23T13:12:30;20.40;64.00
16066;DHT22;8137;48.952;8.970;2023-04-23T13:14:56;20.40;70.50
16066;DHT22;8137;48.952;8.970;2023-04-23T13:17:22;20.80;77.00
16066;DHT22;8137;48.952;8.970;2023-04-23T13:19:49;21.30;81.50
16066;DHT22;8137;48.952;8.970;2023-04-23T13:22:15;21.40;72.60
16066;DHT22;8137;48.952;8.970;2023-04-23T13:24:40;21.20;76.30
16066;DHT22;8137;48.952;8.970;2023-04-23T13:27:06;21.60;75.00
16066;DHT22;8137;48.952;8.970;2023-04-23T13:29:31;22.20;72.60
16066;DHT22;8137;48.952;8.970;2023-04-23T13:31:58;22.70;69.70
16066;DHT22;8137;48.952;8.970;2023-04-23T13:34:23;23.00;58.10
16066;DHT22;8137;48.952;8.970;2023-04-23T13:36:49;23.30;54.10
16066;DHT22;8137;48.952;8.970;2023-04-23T13:39:15;23.70;56.00
16066;DHT22;8137;48.952;8.970;2023-04-23T13:41:42;23.00;51.70
16066;DHT22;8137;48.952;8.970;2023-04-23T13:44:08;22.40;57.30
16066;DHT22;8137;48.952;8.970;2023-04-23T13:46:34;21.80;57.20
16066;DHT22;8137;48.952;8.970;2023-04-23T13:48:59;21.50;59.00
16066;DHT22;8137;48.952;8.970;2023-04-23T13:51:25;21.50;57.60
16066;DHT22;8137;48.952;8.970;2023-04-23T13:53:51;21.60;61.80
16066;DHT22;8137;48.952;8.970;2023-04-23T13:56:17;21.70;58.30
16066;DHT22;8137;48.952;8.970;2023-04-23T13:58:43;21.70;59.50
16066;DHT22;8137;48.952;8.970;2023-04-23T14:01:11;21.80;63.20
16066;DHT22;8137;48.952;8.970;2023-04-23T14:03:38;22.00;58.40
16066;DHT22;8137;48.952;8.970;2023-04-23T14:06:05;22.40;59.20
16066;DHT22;8137;48.952;8.970;2023-04-23T14:08:31;22.60;56.20
16066;DHT22;8137;48.952;8.970;2023-04-23T14:10:56;22.60;52.30
16066;DHT22;8137;48.952;8.970;2023-04-23T14:13:22;22.80;53.30
16066;DHT22;8137;48.952;8.970;2023-04-23T14:15:48;22.80;52.40
16066;DHT22;8137;48.952;8.970;2023-04-23T14:18:13;22.70;49.80
16066;DHT22;8137;48.952;8.970;2023-04-23T14:20:39;22.60;48.80
16066;DHT22;8137;48.952;8.970;2023-04-23T14:26:03;22.80;51.20
16066;DHT22;8137;48.952;8.970;2023-04-23T14:28:43;23.00;47.10
16066;DHT22;8137;48.952;8.970;2023-04-23T14:31:09;23.00;44.80
16066;DHT22;8137;48.952;8.970;2023-04-23T14:33:35;22.80;43.90
16066;DHT22;8137;48.952;8.970;2023-04-23T14:36:00;22.60;44.60
16066;DHT22;8137;48.952;8.970;2023-04-23T14:38:26;22.30;44.50
16066;DHT22;8137;48.952;8.970;2023-04-23T14:40:52;22.10;45.50
16066;DHT22;8137;48.952;8.970;2023-04-23T14:43:17;22.20;46.50
16066;DHT22;8137;48.952;8.970;2023-04-23T14:45:43;22.10;43.50
16066;DHT22;8137;48.952;8.970;2023-04-23T14:48:09;22.10;44.40
16066;DHT22;8137;48.952;8.970;2023-04-23T14:50:35;22.10;43.90
16066;DHT22;8137;48.952;8.970;2023-04-23T14:53:00;22.10;43.00
16066;DHT22;8137;48.952;8.970;2023-04-23T14:55:28;22.00;42.00
16066;DHT22;8137;48.952;8.970;2023-04-23T14:57:54;21.90;38.70
16066;DHT22;8137;48.952;8.970;2023-04-23T15:00:20;21.90;39.50
16066;DHT22;8137;48.952;8.970;2023-04-23T15:02:46;21.80;39.60
16066;DHT22;8137;48.952;8.970;2023-04-23T15:05:12;21.70;41.00
16066;DHT22;8137;48.952;8.970;2023-04-23T15:07:39;21.40;43.10
16066;DHT22;8137;48.952;8.970;2023-04-23T15:10:06;21.40;44.90
16066;DHT22;8137;48.952;8.970;2023-04-23T15:15:06;21.60;43.40
16066;DHT22;8137;48.952;8.970;2023-04-23T15:17:38;21.60;43.30
16066;DHT22;8137;48.952;8.970;2023-04-23T15:20:04;21.40;39.90
16066;DHT22;8137;48.952;8.970;2023-04-23T15:22:29;21.50;41.40
16066;DHT22;8137;48.952;8.970;2023-04-23T15:24:55;21.70;43.90
16066;DHT22;8137;48.952;8.970;2023-04-23T15:27:20;21.80;44.70
16066;DHT22;8137;48.952;8.970;2023-04-23T15:29:46;22.00;44.80
16066;DHT22;8137;48.952;8.970;2023-04-23T15:32:12;22.10;49.70
16066;DHT22;8137;48.952;8.970;2023-04-23T15:34:38;22.00;45.30
16066;DHT22;8137;48.952;8.970;2023-04-23T15:37:03;22.10;45.90
16066;DHT22;8137;48.952;8.970;2023-04-23T15:39:29;22.10;43.20
16066;DHT22;8137;48.952;8.970;2023-04-23T15:41:56;22.10;40.40
16066;DHT22;8137;48.952;8.970;2023-04-23T15:44:21;22.10;40.40
16066;DHT22;8137;48.952;8.970;2023-04-23T15:46:48;22.10;46.20
16066;DHT22;8137;48.952;8.970;2023-04-23T15:49:13;22.20;44.80
16066;DHT22;8137;48.952;8.970;2023-04-23T15:51:39;22.20;42.50
16066;DHT22;8137;48.952;8.970;2023-04-23T15:54:05;22.20;43.30
16066;DHT22;8137;48.952;8.970;2023-04-23T15:56:33;22.00;39.50
16066;DHT22;8137;48.952;8.970;2023-04-23T15:58:58;22.00;42.70